sensor_id;sensor_type;location;lat;lon;timestamp;pressure;altitude;pressure_sealevel;temperature
67353;BMP180;54238;52.278;21.056;2023-12-07T00:01:31;100743.00;;;0.32
67353;BMP180;54238;52.278;21.056;2023-12-07T00:04:03;100743.80;;;0.40
67353;BMP180;54238;52.278;21.056;2023-12-07T00:06:36;100742.00;;;0.40
67353;BMP180;54238;52.278;21.056;2023-12-07T00:09:05;100740.80;;;0.40
67353;BMP180;54238;52.278;21.056;2023-12-07T00:11:35;100741.00;;;0.40
67353;BMP180;54238;52.278;21.056;2023-12-07T00:14:02;100739.80;;;0.40
67353;BMP180;54238;52.278;21.056;2023-12-07T00:16:32;100738.20;;;0.40
67353;BMP180;54238;52.278;21.056;2023-12-07T00:19:01;100738.60;;;0.40
67353;BMP180;54238;52.278;21.056;2023-12-07T00:21:34;100741.60;;;0.40
67353;BMP180;54238;52.278;21.056;2023-12-07T00:24:04;100746.60;;;0.38
67353;BMP180;54238;52.278;21.056;2023-12-07T00:26:34;100746.00;;;0.38
67353;BMP180;54238;52.278;21.056;2023-12-07T00:29:04;100745.40;;;0.40
67353;BMP180;54238;52.278;21.056;2023-12-07T00:31:36;100742.00;;;0.40
67353;BMP180;54238;52.278;21.056;2023-12-07T00:34:05;100742.20;;;0.30
67353;BMP180;54238;52.278;21.056;2023-12-07T00:36:32;100741.80;;;0.30
67353;BMP180;54238;52.278;21.056;2023-12-07T00:39:02;100739.80;;;0.30
67353;BMP180;54238;52.278;21.056;2023-12-07T00:41:32;100742.80;;;0.30
67353;BMP180;54238;52.278;21.056;2023-12-07T00:44:01;100742.00;;;0.30
67353;BMP180;54238;52.278;21.056;2023-12-07T00:46:31;100743.20;;;0.30
67353;BMP180;54238;52.278;21.056;2023-12-07T00:49:03;100744.00;;;0.30
67353;BMP180;54238;52.278;21.056;2023-12-07T00:51:33;100742.60;;;0.30
67353;BMP180;54238;52.278;21.056;2023-12-07T00:54:01;100740.80;;;0.30
67353;BMP180;54238;52.278;21.056;2023-12-07T00:56:31;100743.60;;;0.30
67353;BMP180;54238;52.278;21.056;2023-12-07T00:59:03;100742.80;;;0.30
67353;BMP180;54238;52.278;21.056;2023-12-07T01:01:35;100745.00;;;0.30
67353;BMP180;54238;52.278;21.056;2023-12-07T01:04:07;100744.20;;;0.30
67353;BMP180;54238;52.278;21.056;2023-12-07T01:06:40;100748.80;;;0.30
67353;BMP180;54238;52.278;21.056;2023-12-07T01:09:09;100752.20;;;0.30
67353;BMP180;54238;52.278;21.056;2023-12-07T01:11:42;100751.60;;;0.30
67353;BMP180;54238;52.278;21.056;2023-12-07T01:14:14;100752.00;;;0.30
67353;BMP180;54238;52.278;21.056;2023-12-07T01:16:46;100748.40;;;0.32
67353;BMP180;54238;52.278;21.056;2023-12-07T01:19:16;100744.00;;;0.38
67353;BMP180;54238;52.278;21.056;2023-12-07T01:21:43;100747.20;;;0.34
67353;BMP180;54238;52.278;21.056;2023-12-07T01:24:11;100747.20;;;0.32
67353;BMP180;54238;52.278;21.056;2023-12-07T01:26:38;100751.40;;;0.30
67353;BMP180;54238;52.278;21.056;2023-12-07T01:29:06;100751.60;;;0.34
67353;BMP180;54238;52.278;21.056;2023-12-07T01:31:36;100746.00;;;0.40
67353;BMP180;54238;52.278;21.056;2023-12-07T01:34:05;100748.20;;;0.40
67353;BMP180;54238;52.278;21.056;2023-12-07T01:36:35;100748.60;;;0.40
67353;BMP180;54238;52.278;21.056;2023-12-07T01:39:07;100746.20;;;0.40
67353;BMP180;54238;52.278;21.056;2023-12-07T01:41:43;100740.80;;;0.40
67353;BMP180;54238;52.278;21.056;2023-12-07T01:44:15;100745.40;;;0.40
67353;BMP180;54238;52.278;21.056;2023-12-07T01:46:44;100743.40;;;0.40
67353;BMP180;54238;52.278;21.056;2023-12-07T01:49:14;100743.40;;;0.40
67353;BMP180;54238;52.278;21.056;2023-12-07T01:51:41;100737.40;;;0.40
67353;BMP180;54238;52.278;21.056;2023-12-07T01:54:10;100737.80;;;0.40
67353;BMP180;54238;52.278;21.056;2023-12-07T01:56:37;100736.00;;;0.40
67353;BMP180;54238;52.278;21.056;2023-12-07T01:59:10;100736.20;;;0.40
67353;BMP180;54238;52.278;21.056;2023-12-07T02:01:43;100737.20;;;0.40
67353;BMP180;54238;52.278;21.056;2023-12-07T02:04:10;100733.40;;;0.40
67353;BMP180;54238;52.278;21.056;2023-12-07T02:06:40;100732.60;;;0.40
67353;BMP180;54238;52.278;21.056;2023-12-07T02:09:09;100730.00;;;0.40
67353;BMP180;54238;52.278;21.056;2023-12-07T02:11:36;100734.00;;;0.40
67353;BMP180;54238;52.278;21.056;2023-12-07T02:14:06;100733.20;;;0.40
67353;BMP180;54238;52.278;21.056;2023-12-07T02:16:42;100736.20;;;0.42
67353;BMP180;54238;52.278;21.056;2023-12-07T02:21:56;100735.00;;;0.50
67353;BMP180;54238;52.278;21.056;2023-12-07T02:24:33;100736.20;;;0.50
67353;BMP180;54238;52.278;21.056;2023-12-07T02:27:08;100733.60;;;0.50
67353;BMP180;54238;52.278;21.056;2023-12-07T02:29:36;100734.20;;;0.50
67353;BMP180;54238;52.278;21.056;2023-12-07T02:32:06;100735.00;;;0.50
67353;BMP180;54238;52.278;21.056;2023-12-07T02:34:34;100736.80;;;0.50
67353;BMP180;54238;52.278;21.056;2023-12-07T02:37:03;100741.80;;;0.50
67353;BMP180;54238;52.278;21.056;2023-12-07T02:39:33;100746.00;;;0.50
67353;BMP180;54238;52.278;21.056;2023-12-07T02:42:06;100750.60;;;0.50
67353;BMP180;54238;52.278;21.056;2023-12-07T02:44:35;100748.20;;;0.50
67353;BMP180;54238;52.278;21.056;2023-12-07T02:47:08;100746.40;;;0.50
67353;BMP180;54238;52.278;21.056;2023-12-07T02:49:50;100746.80;;;0.50
67353;BMP180;54238;52.278;21.056;2023-12-07T02:52:17;100749.00;;;0.50
67353;BMP180;54238;52.278;21.056;2023-12-07T02:54:45;100746.60;;;0.50
67353;BMP180;54238;52.278;21.056;2023-12-07T02:57:14;100746.40;;;0.50
67353;BMP180;54238;52.278;21.056;2023-12-07T02:59:41;100744.60;;;0.50
67353;BMP180;54238;52.278;21.056;2023-12-07T03:02:11;100748.40;;;0.50
67353;BMP180;54238;52.278;21.056;2023-12-07T03:04:40;100749.60;;;0.54
67353;BMP180;54238;52.278;21.056;2023-12-07T03:07:09;100746.40;;;0.60
67353;BMP180;54238;52.278;21.056;2023-12-07T03:09:41;100751.60;;;0.60
67353;BMP180;54238;52.278;21.056;2023-12-07T03:12:10;100750.20;;;0.60
67353;BMP180;54238;52.278;21.056;2023-12-07T03:14:38;100749.20;;;0.60
67353;BMP180;54238;52.278;21.056;2023-12-07T03:17:07;100748.60;;;0.60
67353;BMP180;54238;52.278;21.056;2023-12-07T03:19:39;100743.80;;;0.60
67353;BMP180;54238;52.278;21.056;2023-12-07T03:22:08;100742.20;;;0.58
67353;BMP180;54238;52.278;21.056;2023-12-07T03:24:50;100740.00;;;0.54
67353;BMP180;54238;52.278;21.056;2023-12-07T03:27:17;100742.20;;;0.52
67353;BMP180;54238;52.278;21.056;2023-12-07T03:29:50;100748.20;;;0.56
67353;BMP180;54238;52.278;21.056;2023-12-07T03:32:22;100745.40;;;0.60
67353;BMP180;54238;52.278;21.056;2023-12-07T03:34:49;100750.40;;;0.60
67353;BMP180;54238;52.278;21.056;2023-12-07T03:37:16;100750.00;;;0.60
67353;BMP180;54238;52.278;21.056;2023-12-07T03:39:49;100751.60;;;0.62
67353;BMP180;54238;52.278;21.056;2023-12-07T03:42:18;100755.00;;;0.70
67353;BMP180;54238;52.278;21.056;2023-12-07T03:44:48;100752.20;;;0.60
67353;BMP180;54238;52.278;21.056;2023-12-07T03:47:16;100754.80;;;0.60
67353;BMP180;54238;52.278;21.056;2023-12-07T03:49:45;100756.60;;;0.60
67353;BMP180;54238;52.278;21.056;2023-12-07T03:52:17;100758.80;;;0.60
67353;BMP180;54238;52.278;21.056;2023-12-07T03:54:44;100757.20;;;0.62
67353;BMP180;54238;52.278;21.056;2023-12-07T03:57:13;100758.80;;;0.60
67353;BMP180;54238;52.278;21.056;2023-12-07T03:59:43;100758.60;;;0.60
67353;BMP180;54238;52.278;21.056;2023-12-07T04:02:10;100756.80;;;0.64
67353;BMP180;54238;52.278;21.056;2023-12-07T04:04:39;100762.20;;;0.64
67353;BMP180;54238;52.278;21.056;2023-12-07T04:07:14;100763.20;;;0.68
67353;BMP180;54238;52.278;21.056;2023-12-07T04:09:43;100759.80;;;0.70
67353;BMP180;54238;52.278;21.056;2023-12-07T04:12:13;100758.60;;;0.70
67353;BMP180;54238;52.278;21.056;2023-12-07T04:14:41;100760.40;;;0.70
67353;BMP180;54238;52.278;21.056;2023-12-07T04:17:15;100758.80;;;0.70
67353;BMP180;54238;52.278;21.056;2023-12-07T04:19:47;100760.40;;;0.70
67353;BMP180;54238;52.278;21.056;2023-12-07T04:22:24;100760.00;;;0.70
67353;BMP180;54238;52.278;21.056;2023-12-07T04:25:01;100756.20;;;0.70
67353;BMP180;54238;52.278;21.056;2023-12-07T04:27:32;100760.40;;;0.70
67353;BMP180;54238;52.278;21.056;2023-12-07T04:30:00;100759.20;;;0.70
67353;BMP180;54238;52.278;21.056;2023-12-07T04:32:29;100757.00;;;0.70
67353;BMP180;54238;52.278;21.056;2023-12-07T04:34:59;100753.80;;;0.70
67353;BMP180;54238;52.278;21.056;2023-12-07T04:37:27;100757.60;;;0.70
67353;BMP180;54238;52.278;21.056;2023-12-07T04:39:56;100758.20;;;0.70
67353;BMP180;54238;52.278;21.056;2023-12-07T04:42:30;100758.20;;;0.70
67353;BMP180;54238;52.278;21.056;2023-12-07T04:45:00;100758.40;;;0.70
67353;BMP180;54238;52.278;21.056;2023-12-07T04:47:38;100757.00;;;0.70
67353;BMP180;54238;52.278;21.056;2023-12-07T04:50:08;100757.80;;;0.70
67353;BMP180;54238;52.278;21.056;2023-12-07T04:52:39;100759.20;;;0.70
67353;BMP180;54238;52.278;21.056;2023-12-07T04:55:09;100755.00;;;0.70
67353;BMP180;54238;52.278;21.056;2023-12-07T04:57:38;100757.00;;;0.62
67353;BMP180;54238;52.278;21.056;2023-12-07T05:00:09;100754.80;;;0.60
67353;BMP180;54238;52.278;21.056;2023-12-07T05:02:37;100756.20;;;0.70
67353;BMP180;54238;52.278;21.056;2023-12-07T05:05:09;100758.80;;;0.70
67353;BMP180;54238;52.278;21.056;2023-12-07T05:07:37;100757.60;;;0.70
67353;BMP180;54238;52.278;21.056;2023-12-07T05:10:07;100757.80;;;0.70
67353;BMP180;54238;52.278;21.056;2023-12-07T05:12:35;100762.80;;;0.70
67353;BMP180;54238;52.278;21.056;2023-12-07T05:15:03;100761.00;;;0.70
67353;BMP180;54238;52.278;21.056;2023-12-07T05:17:34;100765.40;;;0.70
67353;BMP180;54238;52.278;21.056;2023-12-07T05:20:08;100766.00;;;0.70
67353;BMP180;54238;52.278;21.056;2023-12-07T05:22:44;100772.60;;;0.70
67353;BMP180;54238;52.278;21.056;2023-12-07T05:25:13;100772.60;;;0.70
67353;BMP180;54238;52.278;21.056;2023-12-07T05:27:45;100768.00;;;0.70
67353;BMP180;54238;52.278;21.056;2023-12-07T05:30:14;100771.40;;;0.70
67353;BMP180;54238;52.278;21.056;2023-12-07T05:32:44;100778.20;;;0.70
67353;BMP180;54238;52.278;21.056;2023-12-07T05:35:12;100777.20;;;0.70
67353;BMP180;54238;52.278;21.056;2023-12-07T05:37:39;100777.20;;;0.70
67353;BMP180;54238;52.278;21.056;2023-12-07T05:40:06;100777.20;;;0.70
67353;BMP180;54238;52.278;21.056;2023-12-07T05:42:37;100776.20;;;0.70
67353;BMP180;54238;52.278;21.056;2023-12-07T05:45:05;100779.40;;;0.70
67353;BMP180;54238;52.278;21.056;2023-12-07T05:47:34;100784.60;;;0.70
67353;BMP180;54238;52.278;21.056;2023-12-07T05:50:02;100788.40;;;0.72
67353;BMP180;54238;52.278;21.056;2023-12-07T05:52:35;100787.40;;;0.80
67353;BMP180;54238;52.278;21.056;2023-12-07T05:55:07;100790.80;;;0.80
67353;BMP180;54238;52.278;21.056;2023-12-07T05:57:40;100784.40;;;0.80
67353;BMP180;54238;52.278;21.056;2023-12-07T06:00:13;100786.00;;;0.80
67353;BMP180;54238;52.278;21.056;2023-12-07T06:02:41;100790.20;;;0.80
67353;BMP180;54238;52.278;21.056;2023-12-07T06:05:13;100791.00;;;0.80
67353;BMP180;54238;52.278;21.056;2023-12-07T06:07:43;100797.40;;;0.80
67353;BMP180;54238;52.278;21.056;2023-12-07T06:10:11;100798.60;;;0.80
67353;BMP180;54238;52.278;21.056;2023-12-07T06:12:40;100806.20;;;0.80
67353;BMP180;54238;52.278;21.056;2023-12-07T06:15:12;100800.20;;;0.80
67353;BMP180;54238;52.278;21.056;2023-12-07T06:17:39;100802.80;;;0.80
67353;BMP180;54238;52.278;21.056;2023-12-07T06:20:13;100809.20;;;0.80
67353;BMP180;54238;52.278;21.056;2023-12-07T06:22:40;100811.80;;;0.80
67353;BMP180;54238;52.278;21.056;2023-12-07T06:25:12;100818.40;;;0.80
67353;BMP180;54238;52.278;21.056;2023-12-07T06:27:43;100823.80;;;0.80
67353;BMP180;54238;52.278;21.056;2023-12-07T06:30:15;100823.80;;;0.80
67353;BMP180;54238;52.278;21.056;2023-12-07T06:32:45;100820.20;;;0.80
67353;BMP180;54238;52.278;21.056;2023-12-07T06:35:13;100824.20;;;0.80
67353;BMP180;54238;52.278;21.056;2023-12-07T06:37:40;100824.20;;;0.80
67353;BMP180;54238;52.278;21.056;2023-12-07T06:40:11;100825.40;;;0.80
67353;BMP180;54238;52.278;21.056;2023-12-07T06:42:44;100824.80;;;0.80
67353;BMP180;54238;52.278;21.056;2023-12-07T06:45:15;100830.20;;;0.86
67353;BMP180;54238;52.278;21.056;2023-12-07T06:47:46;100827.80;;;0.88
67353;BMP180;54238;52.278;21.056;2023-12-07T06:50:13;100829.60;;;0.90
67353;BMP180;54238;52.278;21.056;2023-12-07T06:52:46;100831.60;;;0.90
67353;BMP180;54238;52.278;21.056;2023-12-07T06:55:15;100838.20;;;0.90
67353;BMP180;54238;52.278;21.056;2023-12-07T06:57:46;100846.20;;;0.90
67353;BMP180;54238;52.278;21.056;2023-12-07T07:00:19;100841.80;;;0.90
67353;BMP180;54238;52.278;21.056;2023-12-07T07:02:51;100843.20;;;1.00
67353;BMP180;54238;52.278;21.056;2023-12-07T07:05:23;100844.00;;;1.00
67353;BMP180;54238;52.278;21.056;2023-12-07T07:07:53;100846.60;;;1.00
67353;BMP180;54238;52.278;21.056;2023-12-07T07:10:22;100847.20;;;1.06
67353;BMP180;54238;52.278;21.056;2023-12-07T07:12:52;100841.60;;;1.10
67353;BMP180;54238;52.278;21.056;2023-12-07T07:15:24;100844.60;;;1.10
67353;BMP180;54238;52.278;21.056;2023-12-07T07:17:52;100849.60;;;1.10
67353;BMP180;54238;52.278;21.056;2023-12-07T07:20:21;100851.80;;;1.10
67353;BMP180;54238;52.278;21.056;2023-12-07T07:22:51;100843.20;;;1.16
67353;BMP180;54238;52.278;21.056;2023-12-07T07:25:21;100845.00;;;1.20
67353;BMP180;54238;52.278;21.056;2023-12-07T07:27:51;100852.00;;;1.20
67353;BMP180;54238;52.278;21.056;2023-12-07T07:30:21;100846.80;;;1.20
67353;BMP180;54238;52.278;21.056;2023-12-07T07:32:49;100848.80;;;1.20
67353;BMP180;54238;52.278;21.056;2023-12-07T07:35:17;100851.40;;;1.20
67353;BMP180;54238;52.278;21.056;2023-12-07T07:37:44;100853.80;;;1.30
67353;BMP180;54238;52.278;21.056;2023-12-07T07:40:12;100852.80;;;1.30
67353;BMP180;54238;52.278;21.056;2023-12-07T07:42:41;100855.40;;;1.30
67353;BMP180;54238;52.278;21.056;2023-12-07T07:45:09;100855.40;;;1.30
67353;BMP180;54238;52.278;21.056;2023-12-07T07:47:39;100854.00;;;1.40
67353;BMP180;54238;52.278;21.056;2023-12-07T07:50:09;100851.60;;;1.40
67353;BMP180;54238;52.278;21.056;2023-12-07T07:52:38;100845.40;;;1.40
67353;BMP180;54238;52.278;21.056;2023-12-07T07:55:10;100847.20;;;1.50
67353;BMP180;54238;52.278;21.056;2023-12-07T07:57:40;100845.80;;;1.50
67353;BMP180;54238;52.278;21.056;2023-12-07T08:00:10;100850.00;;;1.52
67353;BMP180;54238;52.278;21.056;2023-12-07T08:02:46;100850.40;;;1.60
67353;BMP180;54238;52.278;21.056;2023-12-07T08:05:13;100851.40;;;1.60
67353;BMP180;54238;52.278;21.056;2023-12-07T08:07:45;100854.40;;;1.60
67353;BMP180;54238;52.278;21.056;2023-12-07T08:10:18;100852.80;;;1.60
67353;BMP180;54238;52.278;21.056;2023-12-07T08:12:50;100854.00;;;1.62
67353;BMP180;54238;52.278;21.056;2023-12-07T08:15:22;100856.00;;;1.70
67353;BMP180;54238;52.278;21.056;2023-12-07T08:17:50;100855.00;;;1.70
67353;BMP180;54238;52.278;21.056;2023-12-07T08:20:22;100854.00;;;1.76
67353;BMP180;54238;52.278;21.056;2023-12-07T08:22:50;100863.20;;;1.80
67353;BMP180;54238;52.278;21.056;2023-12-07T08:25:20;100863.00;;;1.80
67353;BMP180;54238;52.278;21.056;2023-12-07T08:27:51;100865.60;;;1.90
67353;BMP180;54238;52.278;21.056;2023-12-07T08:30:20;100864.40;;;1.90
67353;BMP180;54238;52.278;21.056;2023-12-07T08:32:48;100864.60;;;2.00
67353;BMP180;54238;52.278;21.056;2023-12-07T08:35:20;100866.40;;;2.00
67353;BMP180;54238;52.278;21.056;2023-12-07T08:37:53;100871.20;;;2.00
67353;BMP180;54238;52.278;21.056;2023-12-07T08:40:27;100874.80;;;2.06
67353;BMP180;54238;52.278;21.056;2023-12-07T08:42:57;100875.40;;;2.10
67353;BMP180;54238;52.278;21.056;2023-12-07T08:45:27;100875.20;;;2.10
67353;BMP180;54238;52.278;21.056;2023-12-07T08:47:54;100882.00;;;2.10
67353;BMP180;54238;52.278;21.056;2023-12-07T08:50:24;100874.60;;;2.10
67353;BMP180;54238;52.278;21.056;2023-12-07T08:52:57;100875.00;;;2.10
67353;BMP180;54238;52.278;21.056;2023-12-07T08:55:29;100873.60;;;2.10
67353;BMP180;54238;52.278;21.056;2023-12-07T08:58:02;100878.40;;;2.10
67353;BMP180;54238;52.278;21.056;2023-12-07T09:00:32;100881.20;;;2.10
67353;BMP180;54238;52.278;21.056;2023-12-07T09:03:04;100878.00;;;2.14
67353;BMP180;54238;52.278;21.056;2023-12-07T09:05:38;100879.20;;;2.20
67353;BMP180;54238;52.278;21.056;2023-12-07T09:08:08;100877.80;;;2.20
67353;BMP180;54238;52.278;21.056;2023-12-07T09:10:41;100874.40;;;2.20
67353;BMP180;54238;52.278;21.056;2023-12-07T09:13:08;100874.20;;;2.20
67353;BMP180;54238;52.278;21.056;2023-12-07T09:15:38;100874.80;;;2.20
67353;BMP180;54238;52.278;21.056;2023-12-07T09:18:06;100876.60;;;2.18
67353;BMP180;54238;52.278;21.056;2023-12-07T09:20:41;100875.00;;;2.20
67353;BMP180;54238;52.278;21.056;2023-12-07T09:23:17;100876.40;;;2.20
67353;BMP180;54238;52.278;21.056;2023-12-07T09:25:54;100881.60;;;2.20
67353;BMP180;54238;52.278;21.056;2023-12-07T09:28:24;100883.60;;;2.20
67353;BMP180;54238;52.278;21.056;2023-12-07T09:30:54;100885.40;;;2.20
67353;BMP180;54238;52.278;21.056;2023-12-07T09:33:22;100882.80;;;2.20
67353;BMP180;54238;52.278;21.056;2023-12-07T09:35:52;100886.40;;;2.20
67353;BMP180;54238;52.278;21.056;2023-12-07T09:38:24;100883.20;;;2.24
67353;BMP180;54238;52.278;21.056;2023-12-07T09:40:59;100885.80;;;2.30
67353;BMP180;54238;52.278;21.056;2023-12-07T09:43:29;100882.20;;;2.30
67353;BMP180;54238;52.278;21.056;2023-12-07T09:46:00;100881.40;;;2.30
67353;BMP180;54238;52.278;21.056;2023-12-07T09:48:35;100876.00;;;2.30
67353;BMP180;54238;52.278;21.056;2023-12-07T09:51:11;100872.00;;;2.26
67353;BMP180;54238;52.278;21.056;2023-12-07T09:53:44;100869.00;;;2.22
67353;BMP180;54238;52.278;21.056;2023-12-07T09:56:24;100869.80;;;2.20
67353;BMP180;54238;52.278;21.056;2023-12-07T09:59:03;100874.20;;;2.20
67353;BMP180;54238;52.278;21.056;2023-12-07T10:01:40;100875.40;;;2.16
67353;BMP180;54238;52.278;21.056;2023-12-07T10:04:24;100874.60;;;2.20
67353;BMP180;54238;52.278;21.056;2023-12-07T10:06:56;100877.60;;;2.10
67353;BMP180;54238;52.278;21.056;2023-12-07T10:09:26;100880.80;;;2.10
67353;BMP180;54238;52.278;21.056;2023-12-07T10:12:05;100881.20;;;2.20
67353;BMP180;54238;52.278;21.056;2023-12-07T10:14:35;100883.40;;;2.30
67353;BMP180;54238;52.278;21.056;2023-12-07T10:17:05;100883.60;;;2.30
67353;BMP180;54238;52.278;21.056;2023-12-07T10:19:41;100883.20;;;2.30
67353;BMP180;54238;52.278;21.056;2023-12-07T10:22:14;100880.80;;;2.40
67353;BMP180;54238;52.278;21.056;2023-12-07T10:24:50;100879.80;;;2.38
67353;BMP180;54238;52.278;21.056;2023-12-07T10:27:24;100882.60;;;2.34
67353;BMP180;54238;52.278;21.056;2023-12-07T10:30:00;100878.00;;;2.32
67353;BMP180;54238;52.278;21.056;2023-12-07T10:32:41;100880.60;;;2.40
67353;BMP180;54238;52.278;21.056;2023-12-07T10:35:14;100874.00;;;2.40
67353;BMP180;54238;52.278;21.056;2023-12-07T10:37:47;100881.40;;;2.40
67353;BMP180;54238;52.278;21.056;2023-12-07T10:40:15;100883.00;;;2.40
67353;BMP180;54238;52.278;21.056;2023-12-07T10:42:56;100881.40;;;2.40
67353;BMP180;54238;52.278;21.056;2023-12-07T10:45:29;100884.00;;;2.40
67353;BMP180;54238;52.278;21.056;2023-12-07T10:48:09;100884.40;;;2.40
67353;BMP180;54238;52.278;21.056;2023-12-07T10:50:42;100885.00;;;2.40
67353;BMP180;54238;52.278;21.056;2023-12-07T10:53:27;100886.60;;;2.40
67353;BMP180;54238;52.278;21.056;2023-12-07T10:56:01;100885.80;;;2.40
67353;BMP180;54238;52.278;21.056;2023-12-07T10:58:38;100881.00;;;2.40
67353;BMP180;54238;52.278;21.056;2023-12-07T11:01:13;100883.60;;;2.40
67353;BMP180;54238;52.278;21.056;2023-12-07T11:03:45;100882.80;;;2.50
67353;BMP180;54238;52.278;21.056;2023-12-07T11:06:25;100879.60;;;2.50
67353;BMP180;54238;52.278;21.056;2023-12-07T11:09:03;100881.80;;;2.50
67353;BMP180;54238;52.278;21.056;2023-12-07T11:11:43;100882.80;;;2.50
67353;BMP180;54238;52.278;21.056;2023-12-07T11:14:16;100879.20;;;2.56
67353;BMP180;54238;52.278;21.056;2023-12-07T11:16:49;100874.40;;;2.60
67353;BMP180;54238;52.278;21.056;2023-12-07T11:19:46;100876.20;;;2.60
67353;BMP180;54238;52.278;21.056;2023-12-07T11:22:20;100876.80;;;2.60
67353;BMP180;54238;52.278;21.056;2023-12-07T11:24:57;100870.00;;;2.60
67353;BMP180;54238;52.278;21.056;2023-12-07T11:27:30;100865.20;;;2.60
67353;BMP180;54238;52.278;21.056;2023-12-07T11:30:10;100868.00;;;2.50
67353;BMP180;54238;52.278;21.056;2023-12-07T11:32:42;100866.80;;;2.50
67353;BMP180;54238;52.278;21.056;2023-12-07T11:35:14;100867.20;;;2.50
67353;BMP180;54238;52.278;21.056;2023-12-07T11:38:08;100864.80;;;2.50
67353;BMP180;54238;52.278;21.056;2023-12-07T11:40:41;100866.80;;;2.54
67353;BMP180;54238;52.278;21.056;2023-12-07T11:46:07;100868.60;;;2.60
67353;BMP180;54238;52.278;21.056;2023-12-07T11:48:35;100867.40;;;2.50
67353;BMP180;54238;52.278;21.056;2023-12-07T11:51:05;100865.20;;;2.50
67353;BMP180;54238;52.278;21.056;2023-12-07T11:53:38;100873.40;;;2.50
67353;BMP180;54238;52.278;21.056;2023-12-07T11:56:10;100875.40;;;2.50
67353;BMP180;54238;52.278;21.056;2023-12-07T11:58:44;100877.60;;;2.50
67353;BMP180;54238;52.278;21.056;2023-12-07T12:01:16;100878.60;;;2.50
67353;BMP180;54238;52.278;21.056;2023-12-07T12:03:51;100871.40;;;2.40
67353;BMP180;54238;52.278;21.056;2023-12-07T12:06:18;100871.00;;;2.40
67353;BMP180;54238;52.278;21.056;2023-12-07T12:08:46;100870.60;;;2.32
67353;BMP180;54238;52.278;21.056;2023-12-07T12:11:18;100867.40;;;2.30
67353;BMP180;54238;52.278;21.056;2023-12-07T12:13:48;100869.60;;;2.30
67353;BMP180;54238;52.278;21.056;2023-12-07T12:16:20;100874.00;;;2.20
67353;BMP180;54238;52.278;21.056;2023-12-07T12:18:50;100872.20;;;2.10
67353;BMP180;54238;52.278;21.056;2023-12-07T12:21:17;100872.20;;;2.00
67353;BMP180;54238;52.278;21.056;2023-12-07T12:23:49;100869.60;;;1.98
67353;BMP180;54238;52.278;21.056;2023-12-07T12:26:22;100875.20;;;1.90
67353;BMP180;54238;52.278;21.056;2023-12-07T12:28:49;100877.00;;;1.90
67353;BMP180;54238;52.278;21.056;2023-12-07T12:31:17;100876.00;;;1.90
67353;BMP180;54238;52.278;21.056;2023-12-07T12:33:50;100877.00;;;1.90
67353;BMP180;54238;52.278;21.056;2023-12-07T12:36:19;100877.40;;;1.90
67353;BMP180;54238;52.278;21.056;2023-12-07T12:38:50;100876.20;;;1.90
67353;BMP180;54238;52.278;21.056;2023-12-07T12:41:23;100876.80;;;1.90
67353;BMP180;54238;52.278;21.056;2023-12-07T12:43:52;100875.80;;;1.82
67353;BMP180;54238;52.278;21.056;2023-12-07T12:46:21;100877.80;;;1.80
67353;BMP180;54238;52.278;21.056;2023-12-07T12:49:03;100873.80;;;1.76
67353;BMP180;54238;52.278;21.056;2023-12-07T12:51:31;100876.20;;;1.72
67353;BMP180;54238;52.278;21.056;2023-12-07T12:54:10;100880.60;;;1.74
67353;BMP180;54238;52.278;21.056;2023-12-07T12:56:40;100881.60;;;1.70
67353;BMP180;54238;52.278;21.056;2023-12-07T12:59:13;100875.20;;;1.70
67353;BMP180;54238;52.278;21.056;2023-12-07T13:01:45;100878.40;;;1.68
67353;BMP180;54238;52.278;21.056;2023-12-07T13:04:12;100882.00;;;1.68
67353;BMP180;54238;52.278;21.056;2023-12-07T13:06:45;100881.80;;;1.70
67353;BMP180;54238;52.278;21.056;2023-12-07T13:09:18;100881.60;;;1.70
67353;BMP180;54238;52.278;21.056;2023-12-07T13:11:50;100884.40;;;1.70
67353;BMP180;54238;52.278;21.056;2023-12-07T13:14:17;100884.60;;;1.70
67353;BMP180;54238;52.278;21.056;2023-12-07T13:16:45;100888.20;;;1.70
67353;BMP180;54238;52.278;21.056;2023-12-07T13:19:14;100888.40;;;1.74
67353;BMP180;54238;52.278;21.056;2023-12-07T13:21:46;100887.80;;;1.80
67353;BMP180;54238;52.278;21.056;2023-12-07T13:24:16;100894.20;;;1.76
67353;BMP180;54238;52.278;21.056;2023-12-07T13:26:48;100895.20;;;1.70
67353;BMP180;54238;52.278;21.056;2023-12-07T13:29:18;100895.20;;;1.70
67353;BMP180;54238;52.278;21.056;2023-12-07T13:31:46;100897.40;;;1.70
67353;BMP180;54238;52.278;21.056;2023-12-07T13:34:18;100897.60;;;1.70
67353;BMP180;54238;52.278;21.056;2023-12-07T13:36:48;100904.20;;;1.60
67353;BMP180;54238;52.278;21.056;2023-12-07T13:39:19;100900.40;;;1.60
67353;BMP180;54238;52.278;21.056;2023-12-07T13:41:53;100903.80;;;1.56
67353;BMP180;54238;52.278;21.056;2023-12-07T13:44:23;100901.00;;;1.50
67353;BMP180;54238;52.278;21.056;2023-12-07T13:46:53;100899.80;;;1.50
67353;BMP180;54238;52.278;21.056;2023-12-07T13:49:20;100899.00;;;1.50
67353;BMP180;54238;52.278;21.056;2023-12-07T13:51:52;100899.20;;;1.50
67353;BMP180;54238;52.278;21.056;2023-12-07T13:54:20;100897.60;;;1.50
67353;BMP180;54238;52.278;21.056;2023-12-07T13:56:49;100901.40;;;1.50
67353;BMP180;54238;52.278;21.056;2023-12-07T13:59:16;100907.00;;;1.50
67353;BMP180;54238;52.278;21.056;2023-12-07T14:01:45;100904.40;;;1.50
67353;BMP180;54238;52.278;21.056;2023-12-07T14:04:17;100913.00;;;1.50
67353;BMP180;54238;52.278;21.056;2023-12-07T14:06:45;100915.20;;;1.50
67353;BMP180;54238;52.278;21.056;2023-12-07T14:09:12;100916.20;;;1.50
67353;BMP180;54238;52.278;21.056;2023-12-07T14:11:40;100918.20;;;1.50
67353;BMP180;54238;52.278;21.056;2023-12-07T14:14:09;100917.00;;;1.50
67353;BMP180;54238;52.278;21.056;2023-12-07T14:16:42;100919.00;;;1.50
67353;BMP180;54238;52.278;21.056;2023-12-07T14:19:09;100921.20;;;1.50
67353;BMP180;54238;52.278;21.056;2023-12-07T14:21:36;100927.60;;;1.50
67353;BMP180;54238;52.278;21.056;2023-12-07T14:24:08;100931.00;;;1.44